sensor_id;sensor_type;location;lat;lon;timestamp;temperature;humidity
56771;DHT22;42641;59.794;17.616;2023-04-24T00:00:43;4.90;99.90
56771;DHT22;42641;59.794;17.616;2023-04-24T00:03:11;5.00;99.90
56771;DHT22;42641;59.794;17.616;2023-04-24T00:05:38;5.00;99.90
56771;DHT22;42641;59.794;17.616;2023-04-24T00:08:06;5.00;99.90
56771;DHT22;42641;59.794;17.616;2023-04-24T00:10:33;5.00;99.90
56771;DHT22;42641;59.794;17.616;2023-04-24T00:12:59;5.00;99.90
56771;DHT22;42641;59.794;17.616;2023-04-24T00:15:26;5.00;99.90
56771;DHT22;42641;59.794;17.616;2023-04-24T00:17:52;4.90;99.90
56771;DHT22;42641;59.794;17.616;2023-04-24T00:20:19;4.90;99.90
56771;DHT22;42641;59.794;17.616;2023-04-24T00:22:46;4.90;99.90
56771;DHT22;42641;59.794;17.616;2023-04-24T00:25:12;4.90;99.90
56771;DHT22;42641;59.794;17.616;2023-04-24T00:27:38;4.90;99.90
56771;DHT22;42641;59.794;17.616;2023-04-24T00:30:05;4.90;99.90
56771;DHT22;42641;59.794;17.616;2023-04-24T00:32:32;4.90;99.90
56771;DHT22;42641;59.794;17.616;2023-04-24T00:34:58;4.90;99.90
56771;DHT22;42641;59.794;17.616;2023-04-24T00:37:25;4.90;99.90
56771;DHT22;42641;59.794;17.616;2023-04-24T00:39:51;5.00;99.90
56771;DHT22;42641;59.794;17.616;2023-04-24T00:42:18;5.00;99.90
56771;DHT22;42641;59.794;17.616;2023-04-24T00:44:44;5.10;99.90
56771;DHT22;42641;59.794;17.616;2023-04-24T00:47:11;5.20;99.90
56771;DHT22;42641;59.794;17.616;2023-04-24T00:49:38;5.20;99.90
56771;DHT22;42641;59.794;17.616;2023-04-24T00:52:05;5.30;99.90
56771;DHT22;42641;59.794;17.616;2023-04-24T00:54:35;5.30;99.90
56771;DHT22;42641;59.794;17.616;2023-04-24T00:57:05;5.20;99.90
56771;DHT22;42641;59.794;17.616;2023-04-24T00:59:32;5.10;99.90
56771;DHT22;42641;59.794;17.616;2023-04-24T01:01:58;5.00;99.90
56771;DHT22;42641;59.794;17.616;2023-04-24T01:04:25;4.90;99.90
56771;DHT22;42641;59.794;17.616;2023-04-24T01:06:53;4.80;99.90
56771;DHT22;42641;59.794;17.616;2023-04-24T01:09:22;4.80;99.90
56771;DHT22;42641;59.794;17.616;2023-04-24T01:11:50;4.80;99.90
56771;DHT22;42641;59.794;17.616;2023-04-24T01:14:17;4.80;99.90
56771;DHT22;42641;59.794;17.616;2023-04-24T01:16:43;4.80;99.90
56771;DHT22;42641;59.794;17.616;2023-04-24T01:19:10;4.80;99.90
56771;DHT22;42641;59.794;17.616;2023-04-24T01:21:39;4.80;99.90
56771;DHT22;42641;59.794;17.616;2023-04-24T01:24:06;4.90;99.90
56771;DHT22;42641;59.794;17.616;2023-04-24T01:26:33;4.90;99.90
56771;DHT22;42641;59.794;17.616;2023-04-24T01:29:00;4.90;99.90
56771;DHT22;42641;59.794;17.616;2023-04-24T01:31:27;4.90;99.90
56771;DHT22;42641;59.794;17.616;2023-04-24T01:33:54;5.00;99.90
56771;DHT22;42641;59.794;17.616;2023-04-24T01:36:22;4.90;99.90
56771;DHT22;42641;59.794;17.616;2023-04-24T01:38:50;5.00;99.90
56771;DHT22;42641;59.794;17.616;2023-04-24T01:41:16;4.90;99.90
56771;DHT22;42641;59.794;17.616;2023-04-24T01:43:44;4.90;99.90
56771;DHT22;42641;59.794;17.616;2023-04-24T01:46:11;5.00;99.90
56771;DHT22;42641;59.794;17.616;2023-04-24T01:48:37;4.90;99.90
56771;DHT22;42641;59.794;17.616;2023-04-24T01:51:04;4.90;99.90
56771;DHT22;42641;59.794;17.616;2023-04-24T01:53:30;4.80;99.90
56771;DHT22;42641;59.794;17.616;2023-04-24T01:55:57;4.70;99.90
56771;DHT22;42641;59.794;17.616;2023-04-24T01:58:25;4.70;99.90
56771;DHT22;42641;59.794;17.616;2023-04-24T02:00:52;4.80;99.90
56771;DHT22;42641;59.794;17.616;2023-04-24T02:03:20;4.70;99.90
56771;DHT22;42641;59.794;17.616;2023-04-24T02:05:48;4.70;99.90
56771;DHT22;42641;59.794;17.616;2023-04-24T02:08:15;4.70;99.90
56771;DHT22;42641;59.794;17.616;2023-04-24T02:10:41;4.70;99.90
56771;DHT22;42641;59.794;17.616;2023-04-24T02:13:07;4.70;99.90
56771;DHT22;42641;59.794;17.616;2023-04-24T02:15:34;4.80;99.90
56771;DHT22;42641;59.794;17.616;2023-04-24T02:18:00;4.70;99.90
56771;DHT22;42641;59.794;17.616;2023-04-24T02:20:27;4.80;99.90
56771;DHT22;42641;59.794;17.616;2023-04-24T02:22:53;4.80;99.90
56771;DHT22;42641;59.794;17.616;2023-04-24T02:25:20;4.70;99.90
56771;DHT22;42641;59.794;17.616;2023-04-24T02:27:46;4.70;99.90
56771;DHT22;42641;59.794;17.616;2023-04-24T02:30:13;4.60;99.90
56771;DHT22;42641;59.794;17.616;2023-04-24T02:32:39;4.50;99.90
56771;DHT22;42641;59.794;17.616;2023-04-24T02:35:06;4.40;99.90
56771;DHT22;42641;59.794;17.616;2023-04-24T02:37:33;4.40;99.90
56771;DHT22;42641;59.794;17.616;2023-04-24T02:39:59;4.40;99.90
56771;DHT22;42641;59.794;17.616;2023-04-24T02:42:25;4.40;99.90
56771;DHT22;42641;59.794;17.616;2023-04-24T02:44:52;4.40;99.90
56771;DHT22;42641;59.794;17.616;2023-04-24T02:47:18;4.40;99.90
56771;DHT22;42641;59.794;17.616;2023-04-24T02:49:45;4.40;99.90
56771;DHT22;42641;59.794;17.616;2023-04-24T02:52:12;4.40;99.90
56771;DHT22;42641;59.794;17.616;2023-04-24T02:54:39;4.40;99.90
56771;DHT22;42641;59.794;17.616;2023-04-24T02:57:05;4.40;99.90
56771;DHT22;42641;59.794;17.616;2023-04-24T02:59:32;4.40;99.90
56771;DHT22;42641;59.794;17.616;2023-04-24T03:01:59;4.40;99.90
56771;DHT22;42641;59.794;17.616;2023-04-24T03:04:26;4.40;99.90
56771;DHT22;42641;59.794;17.616;2023-04-24T03:06:52;4.40;99.90
56771;DHT22;42641;59.794;17.616;2023-04-24T03:09:21;4.30;99.90
56771;DHT22;42641;59.794;17.616;2023-04-24T03:11:48;4.30;99.90
56771;DHT22;42641;59.794;17.616;2023-04-24T03:14:15;4.40;99.90
56771;DHT22;42641;59.794;17.616;2023-04-24T03:16:42;4.30;99.90
56771;DHT22;42641;59.794;17.616;2023-04-24T03:19:08;4.30;99.90
56771;DHT22;42641;59.794;17.616;2023-04-24T03:21:43;4.30;99.90
56771;DHT22;42641;59.794;17.616;2023-04-24T03:24:10;4.20;99.90
56771;DHT22;42641;59.794;17.616;2023-04-24T03:26:37;4.30;99.90
56771;DHT22;42641;59.794;17.616;2023-04-24T03:29:30;4.30;99.90
56771;DHT22;42641;59.794;17.616;2023-04-24T03:31:57;4.40;99.90
56771;DHT22;42641;59.794;17.616;2023-04-24T03:34:23;4.40;99.90
56771;DHT22;42641;59.794;17.616;2023-04-24T03:36:50;4.30;99.90
56771;DHT22;42641;59.794;17.616;2023-04-24T03:39:18;4.20;99.90
56771;DHT22;42641;59.794;17.616;2023-04-24T03:41:51;4.10;99.90
56771;DHT22;42641;59.794;17.616;2023-04-24T03:44:22;4.20;99.90
56771;DHT22;42641;59.794;17.616;2023-04-24T03:46:50;4.20;99.90
56771;DHT22;42641;59.794;17.616;2023-04-24T03:49:18;4.20;99.90
56771;DHT22;42641;59.794;17.616;2023-04-24T03:51:47;4.30;99.90
56771;DHT22;42641;59.794;17.616;2023-04-24T03:54:19;4.30;99.90
56771;DHT22;42641;59.794;17.616;2023-04-24T03:56:46;4.30;99.90
56771;DHT22;42641;59.794;17.616;2023-04-24T03:59:13;4.30;99.90
56771;DHT22;42641;59.794;17.616;2023-04-24T04:01:41;4.30;99.90
56771;DHT22;42641;59.794;17.616;2023-04-24T04:04:13;4.40;99.90
56771;DHT22;42641;59.794;17.616;2023-04-24T04:06:40;4.40;99.90
56771;DHT22;42641;59.794;17.616;2023-04-24T04:09:07;4.40;99.90
56771;DHT22;42641;59.794;17.616;2023-04-24T04:11:36;4.30;99.90
56771;DHT22;42641;59.794;17.616;2023-04-24T04:14:02;4.30;99.90
56771;DHT22;42641;59.794;17.616;2023-04-24T04:16:29;4.30;99.90
56771;DHT22;42641;59.794;17.616;2023-04-24T04:19:02;4.30;99.90
56771;DHT22;42641;59.794;17.616;2023-04-24T04:21:29;4.20;99.90
56771;DHT22;42641;59.794;17.616;2023-04-24T04:24:08;4.30;99.90
56771;DHT22;42641;59.794;17.616;2023-04-24T04:26:39;4.30;99.90
56771;DHT22;42641;59.794;17.616;2023-04-24T04:29:09;4.30;99.90
56771;DHT22;42641;59.794;17.616;2023-04-24T04:31:40;4.30;99.90
56771;DHT22;42641;59.794;17.616;2023-04-24T04:34:10;4.30;99.90
56771;DHT22;42641;59.794;17.616;2023-04-24T04:36:40;4.40;99.90
56771;DHT22;42641;59.794;17.616;2023-04-24T04:39:30;4.30;99.90
56771;DHT22;42641;59.794;17.616;2023-04-24T04:42:02;4.30;99.90
56771;DHT22;42641;59.794;17.616;2023-04-24T04:44:36;4.30;99.90
56771;DHT22;42641;59.794;17.616;2023-04-24T04:47:03;4.40;99.90
56771;DHT22;42641;59.794;17.616;2023-04-24T04:49:33;4.40;99.90
56771;DHT22;42641;59.794;17.616;2023-04-24T04:52:01;4.40;99.90
56771;DHT22;42641;59.794;17.616;2023-04-24T04:54:28;4.30;99.90
56771;DHT22;42641;59.794;17.616;2023-04-24T04:56:56;4.20;99.90
56771;DHT22;42641;59.794;17.616;2023-04-24T04:59:23;4.20;99.90
56771;DHT22;42641;59.794;17.616;2023-04-24T05:01:56;4.20;99.90
56771;DHT22;42641;59.794;17.616;2023-04-24T05:04:23;4.30;99.90
56771;DHT22;42641;59.794;17.616;2023-04-24T05:06:49;4.20;99.90
56771;DHT22;42641;59.794;17.616;2023-04-24T05:09:18;4.20;99.90
56771;DHT22;42641;59.794;17.616;2023-04-24T05:11:50;4.20;99.90
56771;DHT22;42641;59.794;17.616;2023-04-24T05:14:17;4.30;99.90
56771;DHT22;42641;59.794;17.616;2023-04-24T05:16:45;4.40;99.90
56771;DHT22;42641;59.794;17.616;2023-04-24T05:19:13;4.30;99.90
56771;DHT22;42641;59.794;17.616;2023-04-24T05:21:41;4.40;99.90
56771;DHT22;42641;59.794;17.616;2023-04-24T05:24:09;4.40;99.90
56771;DHT22;42641;59.794;17.616;2023-04-24T05:26:55;4.40;99.90
56771;DHT22;42641;59.794;17.616;2023-04-24T05:29:28;4.40;99.90
56771;DHT22;42641;59.794;17.616;2023-04-24T05:31:57;4.50;99.90
56771;DHT22;42641;59.794;17.616;2023-04-24T05:34:25;4.60;99.90
56771;DHT22;42641;59.794;17.616;2023-04-24T05:36:54;4.60;99.90
56771;DHT22;42641;59.794;17.616;2023-04-24T05:39:21;4.70;99.90
56771;DHT22;42641;59.794;17.616;2023-04-24T05:41:48;4.70;99.90
56771;DHT22;42641;59.794;17.616;2023-04-24T05:44:14;4.70;99.90
56771;DHT22;42641;59.794;17.616;2023-04-24T05:46:42;4.80;99.90
56771;DHT22;42641;59.794;17.616;2023-04-24T05:49:09;4.80;99.90
56771;DHT22;42641;59.794;17.616;2023-04-24T05:51:36;4.90;99.90
56771;DHT22;42641;59.794;17.616;2023-04-24T05:54:03;4.90;99.90
56771;DHT22;42641;59.794;17.616;2023-04-24T05:56:31;5.00;99.90
56771;DHT22;42641;59.794;17.616;2023-04-24T05:58:58;5.10;99.90
56771;DHT22;42641;59.794;17.616;2023-04-24T06:01:25;5.10;99.90
56771;DHT22;42641;59.794;17.616;2023-04-24T06:04:02;5.20;99.90
56771;DHT22;42641;59.794;17.616;2023-04-24T06:06:29;5.20;99.90
56771;DHT22;42641;59.794;17.616;2023-04-24T06:08:56;5.20;99.90
56771;DHT22;42641;59.794;17.616;2023-04-24T06:11:24;5.10;99.90
56771;DHT22;42641;59.794;17.616;2023-04-24T06:13:51;5.00;99.90
56771;DHT22;42641;59.794;17.616;2023-04-24T06:16:36;5.00;99.90
56771;DHT22;42641;59.794;17.616;2023-04-24T06:19:13;4.90;99.90
56771;DHT22;42641;59.794;17.616;2023-04-24T06:21:39;4.90;99.90
56771;DHT22;42641;59.794;17.616;2023-04-24T06:24:06;5.00;99.90
56771;DHT22;42641;59.794;17.616;2023-04-24T06:26:33;4.90;99.90
56771;DHT22;42641;59.794;17.616;2023-04-24T06:29:00;4.80;99.90
56771;DHT22;42641;59.794;17.616;2023-04-24T06:31:26;5.00;99.90
56771;DHT22;42641;59.794;17.616;2023-04-24T06:33:54;5.00;99.90
56771;DHT22;42641;59.794;17.616;2023-04-24T06:36:20;5.10;99.90
56771;DHT22;42641;59.794;17.616;2023-04-24T06:38:47;5.20;99.90
56771;DHT22;42641;59.794;17.616;2023-04-24T06:41:13;5.20;99.90
56771;DHT22;42641;59.794;17.616;2023-04-24T06:43:40;5.30;99.90
56771;DHT22;42641;59.794;17.616;2023-04-24T06:46:06;5.40;99.90
56771;DHT22;42641;59.794;17.616;2023-04-24T06:48:33;5.50;99.90
56771;DHT22;42641;59.794;17.616;2023-04-24T06:50:59;5.50;99.90
56771;DHT22;42641;59.794;17.616;2023-04-24T06:53:26;5.60;99.90
56771;DHT22;42641;59.794;17.616;2023-04-24T06:55:53;5.60;99.90
56771;DHT22;42641;59.794;17.616;2023-04-24T06:58:19;5.60;99.90
56771;DHT22;42641;59.794;17.616;2023-04-24T07:00:46;5.60;99.90
56771;DHT22;42641;59.794;17.616;2023-04-24T07:03:12;5.70;99.90
56771;DHT22;42641;59.794;17.616;2023-04-24T07:05:39;5.60;99.90
56771;DHT22;42641;59.794;17.616;2023-04-24T07:08:06;5.70;99.90
56771;DHT22;42641;59.794;17.616;2023-04-24T07:10:33;5.90;99.90
56771;DHT22;42641;59.794;17.616;2023-04-24T07:13:01;5.90;99.90
56771;DHT22;42641;59.794;17.616;2023-04-24T07:15:29;5.90;99.90
56771;DHT22;42641;59.794;17.616;2023-04-24T07:17:55;5.90;99.90
56771;DHT22;42641;59.794;17.616;2023-04-24T07:20:22;5.90;99.90
56771;DHT22;42641;59.794;17.616;2023-04-24T07:22:48;6.00;99.90
56771;DHT22;42641;59.794;17.616;2023-04-24T07:25:15;6.10;99.90
56771;DHT22;42641;59.794;17.616;2023-04-24T07:27:42;6.20;99.90
56771;DHT22;42641;59.794;17.616;2023-04-24T07:30:08;6.30;99.90
56771;DHT22;42641;59.794;17.616;2023-04-24T07:32:35;6.30;99.90
56771;DHT22;42641;59.794;17.616;2023-04-24T07:35:02;6.40;99.90
56771;DHT22;42641;59.794;17.616;2023-04-24T07:37:29;6.30;99.90
56771;DHT22;42641;59.794;17.616;2023-04-24T07:39:55;6.40;99.90
56771;DHT22;42641;59.794;17.616;2023-04-24T07:42:24;6.30;99.90
56771;DHT22;42641;59.794;17.616;2023-04-24T07:44:50;6.30;99.90
56771;DHT22;42641;59.794;17.616;2023-04-24T07:47:17;6.30;99.90
56771;DHT22;42641;59.794;17.616;2023-04-24T07:49:43;6.30;99.90
56771;DHT22;42641;59.794;17.616;2023-04-24T07:52:10;6.20;99.90
56771;DHT22;42641;59.794;17.616;2023-04-24T07:54:36;6.00;99.90
56771;DHT22;42641;59.794;17.616;2023-04-24T07:57:03;5.90;99.90
56771;DHT22;42641;59.794;17.616;2023-04-24T07:59:30;6.00;99.90
56771;DHT22;42641;59.794;17.616;2023-04-24T08:01:56;6.10;99.90
56771;DHT22;42641;59.794;17.616;2023-04-24T08:04:23;6.20;99.90
56771;DHT22;42641;59.794;17.616;2023-04-24T08:06:49;6.30;99.90
56771;DHT22;42641;59.794;17.616;2023-04-24T08:09:16;6.30;99.90
56771;DHT22;42641;59.794;17.616;2023-04-24T08:11:43;6.40;99.90
56771;DHT22;42641;59.794;17.616;2023-04-24T08:14:09;6.40;99.90
56771;DHT22;42641;59.794;17.616;2023-04-24T08:16:38;6.40;99.90
56771;DHT22;42641;59.794;17.616;2023-04-24T08:19:05;6.50;99.90
56771;DHT22;42641;59.794;17.616;2023-04-24T08:21:31;6.40;99.90
56771;DHT22;42641;59.794;17.616;2023-04-24T08:23:58;6.40;99.90
56771;DHT22;42641;59.794;17.616;2023-04-24T08:26:24;6.40;99.90
56771;DHT22;42641;59.794;17.616;2023-04-24T08:28:51;6.40;99.90
56771;DHT22;42641;59.794;17.616;2023-04-24T08:31:18;6.30;99.90
56771;DHT22;42641;59.794;17.616;2023-04-24T08:33:44;6.30;99.90
56771;DHT22;42641;59.794;17.616;2023-04-24T08:36:11;6.30;99.90
56771;DHT22;42641;59.794;17.616;2023-04-24T08:38:38;6.30;99.90
56771;DHT22;42641;59.794;17.616;2023-04-24T08:41:05;6.20;99.90
56771;DHT22;42641;59.794;17.616;2023-04-24T08:43:33;6.20;99.90
56771;DHT22;42641;59.794;17.616;2023-04-24T08:46:04;6.30;99.90
56771;DHT22;42641;59.794;17.616;2023-04-24T08:48:31;6.40;99.90
56771;DHT22;42641;59.794;17.616;2023-04-24T08:50:58;6.50;99.90
56771;DHT22;42641;59.794;17.616;2023-04-24T08:53:26;6.60;99.90
56771;DHT22;42641;59.794;17.616;2023-04-24T08:55:54;6.70;99.90
56771;DHT22;42641;59.794;17.616;2023-04-24T08:58:22;6.80;99.90
56771;DHT22;42641;59.794;17.616;2023-04-24T09:00:54;6.90;99.90
56771;DHT22;42641;59.794;17.616;2023-04-24T09:03:21;7.00;99.90
56771;DHT22;42641;59.794;17.616;2023-04-24T09:05:48;7.20;99.90
56771;DHT22;42641;59.794;17.616;2023-04-24T09:08:17;7.20;99.90
56771;DHT22;42641;59.794;17.616;2023-04-24T09:10:44;7.20;99.90
56771;DHT22;42641;59.794;17.616;2023-04-24T09:13:11;7.20;99.90
56771;DHT22;42641;59.794;17.616;2023-04-24T09:15:38;7.30;99.90
56771;DHT22;42641;59.794;17.616;2023-04-24T09:18:05;7.30;99.90
56771;DHT22;42641;59.794;17.616;2023-04-24T09:20:32;7.30;99.90
56771;DHT22;42641;59.794;17.616;2023-04-24T09:22:59;7.40;99.90
56771;DHT22;42641;59.794;17.616;2023-04-24T09:25:33;7.30;99.90
56771;DHT22;42641;59.794;17.616;2023-04-24T09:28:04;7.30;99.90
56771;DHT22;42641;59.794;17.616;2023-04-24T09:30:32;7.30;99.90
56771;DHT22;42641;59.794;17.616;2023-04-24T09:33:14;7.30;99.90
56771;DHT22;42641;59.794;17.616;2023-04-24T09:35:51;7.20;99.90
56771;DHT22;42641;59.794;17.616;2023-04-24T09:38:18;7.10;99.90
56771;DHT22;42641;59.794;17.616;2023-04-24T09:40:44;7.00;99.90
56771;DHT22;42641;59.794;17.616;2023-04-24T09:43:11;7.00;99.90
56771;DHT22;42641;59.794;17.616;2023-04-24T09:45:39;7.00;99.90
56771;DHT22;42641;59.794;17.616;2023-04-24T09:48:09;7.00;99.90
56771;DHT22;42641;59.794;17.616;2023-04-24T09:50:36;7.10;99.90
56771;DHT22;42641;59.794;17.616;2023-04-24T09:53:04;7.20;99.90
56771;DHT22;42641;59.794;17.616;2023-04-24T09:55:31;7.30;99.90
56771;DHT22;42641;59.794;17.616;2023-04-24T09:57:59;7.30;99.90
56771;DHT22;42641;59.794;17.616;2023-04-24T10:00:31;7.30;99.90
56771;DHT22;42641;59.794;17.616;2023-04-24T10:02:58;7.20;99.90
56771;DHT22;42641;59.794;17.616;2023-04-24T10:05:32;7.20;99.90
56771;DHT22;42641;59.794;17.616;2023-04-24T10:08:10;7.40;99.90
56771;DHT22;42641;59.794;17.616;2023-04-24T10:10:45;7.50;99.90
56771;DHT22;42641;59.794;17.616;2023-04-24T10:13:14;7.60;99.90
56771;DHT22;42641;59.794;17.616;2023-04-24T10:15:42;7.70;99.90
56771;DHT22;42641;59.794;17.616;2023-04-24T10:18:09;7.70;99.90
56771;DHT22;42641;59.794;17.616;2023-04-24T10:20:38;7.70;99.90
56771;DHT22;42641;59.794;17.616;2023-04-24T10:23:05;7.70;99.90
56771;DHT22;42641;59.794;17.616;2023-04-24T10:25:33;7.60;99.90
56771;DHT22;42641;59.794;17.616;2023-04-24T10:28:01;7.60;99.90
56771;DHT22;42641;59.794;17.616;2023-04-24T10:30:30;7.60;99.90
56771;DHT22;42641;59.794;17.616;2023-04-24T10:32:56;7.50;99.90
56771;DHT22;42641;59.794;17.616;2023-04-24T10:35:23;7.30;99.90
56771;DHT22;42641;59.794;17.616;2023-04-24T10:37:56;7.30;99.90
56771;DHT22;42641;59.794;17.616;2023-04-24T10:40:33;7.50;99.90
56771;DHT22;42641;59.794;17.616;2023-04-24T10:43:02;7.60;99.90
56771;DHT22;42641;59.794;17.616;2023-04-24T10:45:29;7.70;99.90
56771;DHT22;42641;59.794;17.616;2023-04-24T10:50:41;7.80;99.90
56771;DHT22;42641;59.794;17.616;2023-04-24T10:53:13;7.90;99.90
56771;DHT22;42641;59.794;17.616;2023-04-24T10:55:50;7.90;99.90
56771;DHT22;42641;59.794;17.616;2023-04-24T10:58:48;7.90;99.90
56771;DHT22;42641;59.794;17.616;2023-04-24T11:01:33;8.00;99.90
56771;DHT22;42641;59.794;17.616;2023-04-24T11:04:03;8.30;99.90
56771;DHT22;42641;59.794;17.616;2023-04-24T11:06:35;8.20;99.90
56771;DHT22;42641;59.794;17.616;2023-04-24T11:09:09;8.30;99.90
56771;DHT22;42641;59.794;17.616;2023-04-24T11:11:44;8.20;99.90
56771;DHT22;42641;59.794;17.616;2023-04-24T11:14:14;8.00;99.90
56771;DHT22;42641;59.794;17.616;2023-04-24T11:21:59;8.10;99.90
56771;DHT22;42641;59.794;17.616;2023-04-24T11:24:37;8.00;99.90
56771;DHT22;42641;59.794;17.616;2023-04-24T11:27:15;7.80;99.90
56771;DHT22;42641;59.794;17.616;2023-04-24T11:35:06;7.10;99.90
56771;DHT22;42641;59.794;17.616;2023-04-24T11:37:42;7.10;99.90
56771;DHT22;42641;59.794;17.616;2023-04-24T11:40:10;7.00;99.90
56771;DHT22;42641;59.794;17.616;2023-04-24T11:42:47;7.00;99.90
56771;DHT22;42641;59.794;17.616;2023-04-24T11:45:14;7.00;99.90
56771;DHT22;42641;59.794;17.616;2023-04-24T11:47:42;7.00;99.90
56771;DHT22;42641;59.794;17.616;2023-04-24T11:50:13;6.90;99.90
56771;DHT22;42641;59.794;17.616;2023-04-24T11:52:41;6.90;99.90
56771;DHT22;42641;59.794;17.616;2023-04-24T11:55:23;7.00;99.90
56771;DHT22;42641;59.794;17.616;2023-04-24T11:57:57;7.00;99.90
56771;DHT22;42641;59.794;17.616;2023-04-24T12:00:29;7.20;99.90
56771;DHT22;42641;59.794;17.616;2023-04-24T12:03:10;7.40;99.90
56771;DHT22;42641;59.794;17.616;2023-04-24T12:05:38;7.40;99.90
56771;DHT22;42641;59.794;17.616;2023-04-24T12:08:05;7.40;99.90
56771;DHT22;42641;59.794;17.616;2023-04-24T12:10:33;7.40;99.90
56771;DHT22;42641;59.794;17.616;2023-04-24T12:13:00;7.40;99.90
56771;DHT22;42641;59.794;17.616;2023-04-24T12:15:27;7.40;99.90
56771;DHT22;42641;59.794;17.616;2023-04-24T12:17:54;7.40;99.90
56771;DHT22;42641;59.794;17.616;2023-04-24T12:20:29;7.40;99.90
56771;DHT22;42641;59.794;17.616;2023-04-24T12:22:58;7.40;99.90
56771;DHT22;42641;59.794;17.616;2023-04-24T12:25:28;7.40;99.90
56771;DHT22;42641;59.794;17.616;2023-04-24T12:28:10;7.40;99.90
56771;DHT22;42641;59.794;17.616;2023-04-24T12:30:46;7.40;99.90
56771;DHT22;42641;59.794;17.616;2023-04-24T12:33:19;7.20;99.90
56771;DHT22;42641;59.794;17.616;2023-04-24T12:35:47;7.20;99.90
56771;DHT22;42641;59.794;17.616;2023-04-24T12:38:15;7.20;99.90
56771;DHT22;42641;59.794;17.616;2023-04-24T12:40:43;7.20;99.90
56771;DHT22;42641;59.794;17.616;2023-04-24T12:43:14;7.20;99.90
56771;DHT22;42641;59.794;17.616;2023-04-24T12:45:41;7.20;99.90
56771;DHT22;42641;59.794;17.616;2023-04-24T12:48:08;7.30;99.90
56771;DHT22;42641;59.794;17.616;2023-04-24T12:50:34;7.40;99.90
56771;DHT22;42641;59.794;17.616;2023-04-24T12:53:01;7.40;99.90
56771;DHT22;42641;59.794;17.616;2023-04-24T12:55:27;7.40;99.90
56771;DHT22;42641;59.794;17.616;2023-04-24T12:57:53;7.40;99.90
56771;DHT22;42641;59.794;17.616;2023-04-24T13:00:21;7.40;99.90
56771;DHT22;42641;59.794;17.616;2023-04-24T13:02:48;7.40;99.90
56771;DHT22;42641;59.794;17.616;2023-04-24T13:05:14;7.30;99.90
56771;DHT22;42641;59.794;17.616;2023-04-24T13:07:41;7.40;99.90
56771;DHT22;42641;59.794;17.616;2023-04-24T13:10:08;7.40;99.90
56771;DHT22;42641;59.794;17.616;2023-04-24T13:12:35;7.30;99.90
56771;DHT22;42641;59.794;17.616;2023-04-24T13:15:02;7.30;99.90
56771;DHT22;42641;59.794;17.616;2023-04-24T13:17:29;7.40;99.90
56771;DHT22;42641;59.794;17.616;2023-04-24T13:19:56;7.60;99.90
56771;DHT22;42641;59.794;17.616;2023-04-24T13:22:22;7.60;99.90
56771;DHT22;42641;59.794;17.616;2023-04-24T13:24:49;7.70;99.90
56771;DHT22;42641;59.794;17.616;2023-04-24T13:27:16;7.60;99.90
56771;DHT22;42641;59.794;17.616;2023-04-24T13:29:43;7.50;99.90
56771;DHT22;42641;59.794;17.616;2023-04-24T13:32:09;7.40;99.90
56771;DHT22;42641;59.794;17.616;2023-04-24T13:34:36;7.40;99.90
56771;DHT22;42641;59.794;17.616;2023-04-24T13:37:03;7.30;99.90
56771;DHT22;42641;59.794;17.616;2023-04-24T13:39:30;7.20;99.90
56771;DHT22;42641;59.794;17.616;2023-04-24T13:41:57;7.30;99.90
56771;DHT22;42641;59.794;17.616;2023-04-24T13:44:24;7.30;99.90
56771;DHT22;42641;59.794;17.616;2023-04-24T13:46:52;7.40;99.90
56771;DHT22;42641;59.794;17.616;2023-04-24T13:49:21;7.30;99.90
56771;DHT22;42641;59.794;17.616;2023-04-24T13:51:47;7.30;99.90
56771;DHT22;42641;59.794;17.616;2023-04-24T13:54:14;7.30;99.90
56771;DHT22;42641;59.794;17.616;2023-04-24T13:56:40;7.40;99.90
56771;DHT22;42641;59.794;17.616;2023-04-24T13:59:07;7.50;99.90
56771;DHT22;42641;59.794;17.616;2023-04-24T14:01:34;7.50;99.90
56771;DHT22;42641;59.794;17.616;2023-04-24T14:04:01;7.60;99.90
56771;DHT22;42641;59.794;17.616;2023-04-24T14:06:27;7.60;99.90
56771;DHT22;42641;59.794;17.616;2023-04-24T14:08:54;7.60;99.90
56771;DHT22;42641;59.794;17.616;2023-04-24T14:11:20;7.50;99.90
56771;DHT22;42641;59.794;17.616;2023-04-24T14:13:47;7.50;99.90
56771;DHT22;42641;59.794;17.616;2023-04-24T14:16:14;7.50;99.90
56771;DHT22;42641;59.794;17.616;2023-04-24T14:18:40;7.50;99.90
56771;DHT22;42641;59.794;17.616;2023-04-24T14:21:07;7.40;99.90
56771;DHT22;42641;59.794;17.616;2023-04-24T14:23:34;7.30;99.90
56771;DHT22;42641;59.794;17.616;2023-04-24T14:26:00;7.40;99.90
56771;DHT22;42641;59.794;17.616;2023-04-24T14:28:27;7.30;99.90
56771;DHT22;42641;59.794;17.616;2023-04-24T14:30:53;7.20;99.90
56771;DHT22;42641;59.794;17.616;2023-04-24T14:33:20;7.30;99.90
56771;DHT22;42641;59.794;17.616;2023-04-24T14:35:46;7.20;99.90
56771;DHT22;42641;59.794;17.616;2023-04-24T14:38:14;7.00;99.90
56771;DHT22;42641;59.794;17.616;2023-04-24T14:40:41;7.00;99.90
56771;DHT22;42641;59.794;17.616;2023-04-24T14:43:07;7.00;99.90
56771;DHT22;42641;59.794;17.616;2023-04-24T14:45:34;7.00;99.90
56771;DHT22;42641;59.794;17.616;2023-04-24T14:48:00;7.00;99.90
56771;DHT22;42641;59.794;17.616;2023-04-24T14:50:27;7.00;99.90
56771;DHT22;42641;59.794;17.616;2023-04-24T14:52:55;7.00;99.90
56771;DHT22;42641;59.794;17.616;2023-04-24T14:55:24;7.00;99.90
56771;DHT22;42641;59.794;17.616;2023-04-24T14:57:52;7.00;99.90
56771;DHT22;42641;59.794;17.616;2023-04-24T15:00:19;7.00;99.90
56771;DHT22;42641;59.794;17.616;2023-04-24T15:02:49;7.00;99.90
56771;DHT22;42641;59.794;17.616;2023-04-24T15:05:16;7.00;99.90
56771;DHT22;42641;59.794;17.616;2023-04-24T15:07:42;7.00;99.90
56771;DHT22;42641;59.794;17.616;2023-04-24T15:10:09;6.90;99.90
56771;DHT22;42641;59.794;17.616;2023-04-24T15:12:35;6.80;99.90
56771;DHT22;42641;59.794;17.616;2023-04-24T15:15:03;6.80;99.90
56771;DHT22;42641;59.794;17.616;2023-04-24T15:17:31;6.70;99.90
56771;DHT22;42641;59.794;17.616;2023-04-24T15:19:58;6.80;99.90
56771;DHT22;42641;59.794;17.616;2023-04-24T15:22:24;6.80;99.90
56771;DHT22;42641;59.794;17.616;2023-04-24T15:24:51;6.90;99.90
56771;DHT22;42641;59.794;17.616;2023-04-24T15:27:17;7.00;99.90
56771;DHT22;42641;59.794;17.616;2023-04-24T15:29:44;7.00;99.90
56771;DHT22;42641;59.794;17.616;2023-04-24T15:32:11;6.90;99.90
56771;DHT22;42641;59.794;17.616;2023-04-24T15:34:37;6.90;99.90
56771;DHT22;42641;59.794;17.616;2023-04-24T15:37:04;7.00;99.90
56771;DHT22;42641;59.794;17.616;2023-04-24T15:39:30;7.10;99.90
56771;DHT22;42641;59.794;17.616;2023-04-24T15:41:56;7.10;99.90
56771;DHT22;42641;59.794;17.616;2023-04-24T15:44:23;7.10;99.90
56771;DHT22;42641;59.794;17.616;2023-04-24T15:46:50;7.00;99.90
56771;DHT22;42641;59.794;17.616;2023-04-24T15:49:17;6.80;99.90